Adrian, MI

6:54 AM EST on January 24, 2017 (GMT -0500)
Siena Heights University | | Change Station

Elev 797 ft 41.91 °N, 84.02 °W | Updated 11 seconds ago

Overcast
Overcast
38.4 °F
Feels Like 38 °F
N
3.0
Wind Variable Wind from NW
Gusts 8.0 mph

Today
High -- | Low -- °F
--% Chance of Precip.
Yesterday
High -- | Low -- °F
Precip. -- in
Pressure 29.74 in
Visibility 10.0 miles
Clouds Few 2100 ft
Mostly Cloudy 3800 ft
Overcast 4900 ft
Windchill 38 °F
Dew Point 38 °F
Humidity 97%
Rainfall 0.05 in
Snow Depth Not available.
7:55 AM 5:41 PM
Waning Crescent, 12% visible
SPECI KADG 241135Z AUTO 32006KT 10SM FEW021 BKN038 OVC049 03/03 A2974 RMK AO2 T00330033
Pressure 29.74 in
Visibility 10.0 miles
Clouds Few 2100 ft
Mostly Cloudy 3800 ft
Overcast 4900 ft
Windchill 38 °F
Dew Point 38 °F
Humidity 97%
Rainfall 0.05 in
Snow Depth Not available.
7:55 AM 5:41 PM
Waning Crescent, 12% visible
SPECI KADG 241135Z AUTO 32006KT 10SM FEW021 BKN038 OVC049 03/03 A2974 RMK AO2 T00330033

Get Your Daily Forecast Email!

Thanks for signing up!

Be on the lookout for a verification email in your inbox.

You'll start receiving the daily forecast at 8 AM.

×

10-Day Weather Forecast

Almanac

Astronomy

Jan. 24, 2017 Rise Set
Actual Time
Civil Twilight
Nautical Twilight
Astronomical Twilight
Moon
Length of Visible Light
Length of Day
Tomorrow will be .
, % of the Moon is Illuminated

Today's Extremes

State Highs State Lows

Community

WunderPhotos

Upload Photos

1,962,540 photos uploaded!

WunderBlog® & News

Nearby

Air Quality

  Air Quality AQ Index Pollutant
Not available.

Snow Depth

Station Depth Elevation

Earthquake Activity

City Distance Mag. Time & Date
Minimum magnitude displayed is 2.5.

Coastal Water Temperatures

Place Temperature

Stations

Nearby Weather Stations

Station Location Temp. Windchill Dew Point Humidity Wind Precip. Elev Updated Type
                   

Watches & Warnings

There are currently no watches in effect.